Time;durP1;ratioP1;P1;durP2;ratioP2;P2;SDS_P1;SDS_P2;PMS_P1;PMS_P2;Temp;Humidity;BMP_temperature;BMP_pressure;BME280_temperature;BME280_humidity;BME280_pressure;Samples;Min_cycle;Max_cycle;Signal;HPM_P1;HPM_P2
2023/02/11 00:00:33;;;;;;;0.10;0.10;;;;;;;;;;6099746;23;20010;-88
2023/02/11 00:02:59;;;;;;;0.10;0.10;;;;;;;;;;6096851;23;20014;-87
2023/02/11 00:05:25;;;;;;;0.10;0.10;;;;;;;;;;6099672;23;20486;-88
2023/02/11 00:07:50;;;;;;;0.10;0.10;;;;;;;;;;6098381;23;20017;-87
2023/02/11 00:10:16;;;;;;;0.10;0.10;;;;;;;;;;6123965;23;20005;-87
2023/02/11 00:12:42;;;;;;;0.10;0.10;;;;;;;;;;6095840;23;20062;-88
2023/02/11 00:15:08;;;;;;;0.03;0.03;;;;;;;;;;6098067;23;20106;-87
2023/02/11 00:17:34;;;;;;;0.10;0.10;;;;;;;;;;6098579;23;20054;-87
2023/02/11 00:20:00;;;;;;;0.10;0.10;;;;;;;;;;6124214;23;20002;-88
2023/02/11 00:22:26;;;;;;;0.10;0.10;;;;;;;;;;6097539;23;20006;-88
2023/02/11 00:24:53;;;;;;;0.10;0.10;;;;;;;;;;6098657;23;20368;-89
2023/02/11 00:27:18;;;;;;;0.10;0.10;;;;;;;;;;6122798;23;19998;-88
2023/02/11 00:29:45;;;;;;;0.05;0.05;;;;;;;;;;6124380;23;20013;-88
2023/02/11 00:32:10;;;;;;;0.10;0.10;;;;;;;;;;6097468;23;20189;-87
2023/02/11 00:34:37;;;;;;;0.10;0.10;;;;;;;;;;6098623;23;20013;-87
2023/02/11 00:37:03;;;;;;;0.10;0.10;;;;;;;;;;6099312;23;20010;-87
2023/02/11 00:39:29;;;;;;;0.10;0.10;;;;;;;;;;6096918;23;20013;-89
2023/02/11 00:41:55;;;;;;;0.10;0.10;;;;;;;;;;6099244;23;20093;-87
2023/02/11 00:44:21;;;;;;;0.10;0.10;;;;;;;;;;6099811;23;20380;-89
2023/02/11 00:46:47;;;;;;;0.10;0.10;;;;;;;;;;6100209;23;20004;-87
2023/02/11 00:49:13;;;;;;;0.10;0.10;;;;;;;;;;6100009;23;20002;-87
2023/02/11 00:51:39;;;;;;;0.10;0.10;;;;;;;;;;6100372;23;20005;-87
2023/02/11 00:54:05;;;;;;;0.10;0.10;;;;;;;;;;6099760;23;20096;-88
2023/02/11 00:56:31;;;;;;;0.10;0.10;;;;;;;;;;6100150;23;20057;-87
2023/02/11 00:58:57;;;;;;;0.10;0.10;;;;;;;;;;6099143;23;20053;-86
2023/02/11 01:01:23;;;;;;;0.10;0.10;;;;;;;;;;6098138;23;20052;-87
2023/02/11 01:03:49;;;;;;;0.10;0.10;;;;;;;;;;6123924;23;20002;-88
2023/02/11 01:06:16;;;;;;;0.10;0.10;;;;;;;;;;6099802;23;20483;-87
2023/02/11 01:08:42;;;;;;;0.10;0.10;;;;;;;;;;6099416;23;20006;-87
2023/02/11 01:11:13;;;;;;;0.10;0.10;;;6.80;99.90;;;;;;6099473;23;20001;-87
2023/02/11 01:13:39;;;;;;;0.10;0.10;;;;;;;;;;6099796;23;20028;-87
2023/02/11 01:16:09;;;;;;;0.10;0.10;;;6.80;99.90;;;;;;6098486;23;20427;-88
2023/02/11 01:18:35;;;;;;;0.10;0.10;;;;;;;;;;6125315;23;20466;-87
2023/02/11 01:21:01;;;;;;;0.00;0.00;;;;;;;;;;6126643;23;20056;-87
2023/02/11 01:23:27;;;;;;;0.10;0.10;;;;;;;;;;6100021;23;20006;-87
2023/02/11 01:25:53;;;;;;;0.10;0.10;;;;;;;;;;6099345;23;20314;-88
2023/02/11 01:28:21;;;;;;;0.10;0.10;;;6.90;99.90;;;;;;6099630;23;20346;-88
2023/02/11 01:30:47;;;;;;;0.00;0.00;;;;;;;;;;6124319;23;20002;-88
2023/02/11 01:33:13;;;;;;;0.10;0.10;;;;;;;;;;6099692;23;20093;-87
2023/02/11 01:35:40;;;;;;;0.10;0.10;;;;;;;;;;6100032;23;20041;-87
2023/02/11 01:38:06;;;;;;;0.10;0.10;;;6.90;99.90;;;;;;6126106;23;20006;-88
2023/02/11 01:40:33;;;;;;;0.10;0.10;;;;;;;;;;6099163;23;20017;-87
2023/02/11 01:42:59;;;;;;;0.10;0.10;;;;;;;;;;6102631;23;20435;-86
2023/02/11 01:45:43;;;;;;;0.10;0.10;;;6.90;99.90;;;;;;6104657;23;20036;-88
2023/02/11 01:48:11;;;;;;;0.10;0.10;;;6.90;99.90;;;;;;6103368;23;20466;-88
2023/02/11 01:50:41;;;;;;;0.10;0.10;;;6.90;99.90;;;;;;6101486;23;20065;-87
2023/02/11 01:58:39;;;;;;;0.10;0.10;;;6.80;99.90;;;;;;6127985;23;20089;-87
2023/02/11 02:01:06;;;;;;;0.10;0.10;;;6.80;99.90;;;;;;6101050;23;20017;-87
2023/02/11 02:03:37;;;;;;;0.10;0.10;;;6.80;99.90;;;;;;6101351;23;20006;-87
2023/02/11 02:06:17;;;;;;;0.10;0.10;;;6.90;99.90;;;;;;6102720;23;20021;-88
2023/02/11 02:08:44;;;;;;;0.10;0.10;;;6.90;99.90;;;;;;6101471;23;20006;-89
2023/02/11 02:11:10;;;;;;;0.10;0.10;;;6.80;99.90;;;;;;6102247;23;20009;-88
2023/02/11 02:13:37;;;;;;;0.10;0.10;;;;;;;;;;6100915;23;20006;-87
2023/02/11 02:16:06;;;;;;;0.10;0.10;;;6.90;99.90;;;;;;6100899;23;20010;-88
2023/02/11 02:18:42;;;;;;;0.10;0.10;;;6.80;99.90;;;;;;6102184;23;20092;-88
2023/02/11 02:21:32;;;;;;;0.10;0.10;;;6.80;99.90;;;;;;6101385;23;20033;-89
2023/02/11 02:24:16;;;;;;;;;;;6.80;99.90;;;;;;6126928;23;20001;-88
2023/02/11 02:27:03;;;;;;;0.10;0.10;;;6.80;99.90;;;;;;6126038;23;19905;-88
2023/02/11 02:30:07;;;;;;;0.10;0.10;;;6.70;99.90;;;;;;6100784;23;20507;-87
2023/02/11 02:32:56;;;;;;;0.10;0.10;;;6.70;99.90;;;;;;6101233;23;20081;-88
2023/02/11 02:35:52;;;;;;;0.10;0.10;;;6.70;99.90;;;;;;6101213;23;20033;-88
2023/02/11 02:38:26;;;;;;;0.10;0.10;;;6.80;99.90;;;;;;6127011;23;20081;-87
2023/02/11 02:40:57;;;;;;;0.10;0.10;;;6.80;99.90;;;;;;6098253;23;20387;-88
2023/02/11 02:43:26;;;;;;;0.10;0.10;;;6.80;99.90;;;;;;6099753;23;20017;-88
2023/02/11 02:45:52;;;;;;;0.10;0.10;;;6.80;99.90;;;;;;6099970;23;20010;-87
2023/02/11 02:48:36;;;;;;;0.10;0.10;;;6.90;99.90;;;;;;6100052;23;20490;-88
2023/02/11 02:51:43;;;;;;;0.10;0.10;;;6.70;99.90;;;;;;6125706;23;20076;-87
2023/02/11 02:54:40;;;;;;;0.10;0.10;;;6.80;99.90;;;;;;6070170;23;20018;-87
2023/02/11 02:57:29;;;;;;;0.10;0.10;;;6.80;99.90;;;;;;6098472;23;20017;-87
2023/02/11 03:00:22;;;;;;;0.10;0.10;;;6.80;99.90;;;;;;6099194;23;20335;-88
2023/02/11 03:02:48;;;;;;;0.10;0.10;;;;;;;;;;6098514;23;20014;-87
2023/02/11 03:05:38;;;;;;;0.10;0.10;;;6.80;99.90;;;;;;6125664;23;20020;-88
2023/02/11 03:08:13;;;;;;;0.10;0.10;;;6.70;99.90;;;;;;6099778;23;20053;-88
2023/02/11 03:10:42;;;;;;;0.10;0.10;;;6.70;99.90;;;;;;6100263;23;20063;-87
2023/02/11 03:13:08;;;;;;;0.10;0.10;;;6.60;99.90;;;;;;6099032;23;20003;-88
2023/02/11 03:15:39;;;;;;;0.10;0.10;;;6.80;99.90;;;;;;6123301;23;20006;-88
2023/02/11 03:18:07;;;;;;;0.10;0.10;;;6.80;99.90;;;;;;6099926;23;20212;-88
2023/02/11 03:20:36;;;;;;;0.10;0.10;;;6.80;99.90;;;;;;6098872;23;20077;-87
2023/02/11 03:23:15;;;;;;;0.10;0.10;;;6.90;99.90;;;;;;6099999;23;20030;-88
2023/02/11 03:25:51;;;;;;;0.10;0.10;;;6.80;99.90;;;;;;6098819;23;20041;-87
2023/02/11 03:28:30;;;;;;;0.10;0.10;;;6.80;99.90;;;;;;6099734;23;20094;-88
2023/02/11 03:31:16;;;;;;;0.10;0.10;;;6.80;99.90;;;;;;6099172;23;20009;-87
2023/02/11 03:33:59;;;;;;;0.10;0.10;;;6.70;99.90;;;;;;6124358;23;20212;-88
2023/02/11 03:36:44;;;;;;;0.10;0.10;;;6.80;99.90;;;;;;6098803;23;20009;-87
2023/02/11 03:39:13;;;;;;;0.10;0.10;;;6.80;99.90;;;;;;6099171;23;20116;-87
2023/02/11 03:41:41;;;;;;;0.10;0.10;;;6.70;99.90;;;;;;6098903;23;20518;-88
2023/02/11 03:44:06;;;;;;;0.10;0.10;;;6.70;99.90;;;;;;6097789;23;20014;-88
2023/02/11 03:46:36;;;;;;;0.10;0.10;;;6.80;99.90;;;;;;6096551;23;20347;-87
2023/02/11 03:49:05;;;;;;;0.10;0.10;;;6.80;99.90;;;;;;6098327;23;20013;-88
2023/02/11 03:51:32;;;;;;;0.10;0.10;;;6.80;99.90;;;;;;6099309;23;20403;-87
2023/02/11 03:54:01;;;;;;;0.10;0.10;;;6.80;99.90;;;;;;6099144;23;20076;-87
2023/02/11 03:56:30;;;;;;;0.10;0.10;;;6.70;99.90;;;;;;6098379;23;20339;-88
2023/02/11 03:58:56;;;;;;;0.10;0.10;;;6.70;99.90;;;;;;6099119;23;20427;-87
2023/02/11 04:01:22;;;;;;;0.10;0.10;;;6.70;99.90;;;;;;6099008;23;20110;-90
2023/02/11 04:03:47;;;;;;;0.10;0.10;;;6.60;99.90;;;;;;6098683;23;20037;-87
2023/02/11 04:06:13;;;;;;;0.10;0.10;;;6.60;99.90;;;;;;6096235;23;20058;-87
2023/02/11 04:08:39;;;;;;;0.10;0.10;;;;;;;;;;6098986;23;20032;-87
2023/02/11 04:11:05;;;;;;;0.10;0.10;;;;;;;;;;6097517;23;20419;-86
2023/02/11 04:13:31;;;;;;;0.10;0.10;;;;;;;;;;6099704;23;20002;-88
2023/02/11 04:15:56;;;;;;;0.10;0.10;;;6.70;99.90;;;;;;6099053;23;20583;-87
2023/02/11 04:18:22;;;;;;;0.10;0.10;;;;;;;;;;6100930;23;20010;-88
2023/02/11 04:20:49;;;;;;;0.10;0.10;;;6.70;99.90;;;;;;6100077;23;20012;-87
2023/02/11 04:23:15;;;;;;;0.10;0.10;;;;;;;;;;6101425;23;20388;-88
2023/02/11 04:25:41;;;;;;;0.10;0.10;;;6.70;99.90;;;;;;6099552;23;20013;-88
2023/02/11 04:28:07;;;;;;;0.10;0.10;;;;;;;;;;6100665;23;20009;-87
2023/02/11 04:30:33;;;;;;;0.10;0.10;;;;;;;;;;6099290;23;20002;-87
2023/02/11 04:32:59;;;;;;;0.10;0.10;;;;;;;;;;6099303;23;20008;-87
2023/02/11 04:35:25;;;;;;;0.10;0.10;;;;;;;;;;6099053;23;20013;-87
2023/02/11 04:37:51;;;;;;;0.08;0.08;;;;;;;;;;6099191;23;20006;-87
2023/02/11 04:40:17;;;;;;;0.10;0.10;;;;;;;;;;6098836;23;20081;-88
2023/02/11 04:42:43;;;;;;;0.10;0.10;;;;;;;;;;6099285;23;20006;-90
2023/02/11 04:45:08;;;;;;;0.10;0.10;;;6.70;99.90;;;;;;6097748;23;20053;-86
2023/02/11 04:47:36;;;;;;;0.10;0.10;;;;;;;;;;6098074;23;20153;-88
2023/02/11 04:50:02;;;;;;;0.10;0.10;;;;;;;;;;6099783;23;20012;-87
2023/02/11 04:52:28;;;;;;;0.10;0.10;;;;;;;;;;6097451;23;20006;-87
2023/02/11 04:54:53;;;;;;;0.10;0.10;;;6.60;99.90;;;;;;6096045;23;20006;-87
2023/02/11 05:59:21;;;;;;;0.10;0.10;;;;;;;;;;6184256;23;20021;-87
2023/02/11 06:01:47;;;;;;;0.10;0.10;;;;;;;;;;6181798;23;20335;-86
2023/02/11 06:04:12;;;;;;;0.10;0.10;;;6.80;99.90;;;;;;6181302;23;20008;-86
2023/02/11 06:06:37;;;;;;;0.10;0.10;;;6.70;99.90;;;;;;6182183;23;20021;-87
2023/02/11 06:09:03;;;;;;;0.10;0.10;;;6.80;99.90;;;;;;6182028;23;20005;-88
2023/02/11 06:11:29;;;;;;;0.10;0.10;;;6.80;99.90;;;;;;6183965;23;20457;-88
2023/02/11 06:13:54;;;;;;;0.10;0.10;;;6.90;99.90;;;;;;6184046;23;19997;-88
2023/02/11 06:16:20;;;;;;;0.10;0.10;;;6.90;99.90;;;;;;6183693;23;20016;-89
2023/02/11 06:18:45;;;;;;;0.10;0.10;;;6.90;99.90;;;;;;6183562;23;20009;-90
2023/02/11 06:21:11;;;;;;;0.10;0.10;;;7.00;99.90;;;;;;6183368;23;20001;-87
2023/02/11 06:23:37;;;;;;;0.10;0.10;;;7.00;99.90;;;;;;6183630;23;20001;-88
2023/02/11 06:26:05;;;;;;;0.10;0.10;;;6.90;99.90;;;;;;6183528;23;20040;-88
2023/02/11 06:28:31;;;;;;;0.10;0.10;;;7.00;99.90;;;;;;6181624;23;20005;-88
2023/02/11 06:30:58;;;;;;;0.10;0.10;;;7.00;99.90;;;;;;6182965;23;20001;-87
2023/02/11 06:33:23;;;;;;;0.10;0.10;;;7.00;99.90;;;;;;6181007;23;20095;-88
2023/02/11 06:35:49;;;;;;;0.10;0.10;;;7.10;99.90;;;;;;6183138;23;20431;-87
2023/02/11 06:38:14;;;;;;;0.03;0.03;;;7.10;99.90;;;;;;6183259;23;20005;-87
2023/02/11 06:40:40;;;;;;;0.10;0.10;;;7.00;99.90;;;;;;6183588;23;20005;-88
2023/02/11 06:43:06;;;;;;;0.10;0.10;;;7.00;99.90;;;;;;6180904;23;20084;-88
2023/02/11 06:45:31;;;;;;;0.10;0.10;;;7.00;99.90;;;;;;6182743;23;20046;-87
2023/02/11 06:47:57;;;;;;;0.10;0.10;;;7.00;99.90;;;;;;6180811;23;20441;-87
2023/02/11 06:50:22;;;;;;;0.10;0.10;;;7.00;99.90;;;;;;6186489;23;20004;-88
2023/02/11 06:52:48;;;;;;;0.10;0.10;;;7.10;99.90;;;;;;6184194;23;20003;-88
2023/02/11 06:55:14;;;;;;;0.10;0.10;;;7.10;99.90;;;;;;6185102;23;20391;-87
2023/02/11 06:57:39;;;;;;;0.10;0.10;;;7.10;99.90;;;;;;6181580;23;20013;-88
2023/02/11 07:00:05;;;;;;;0.10;0.10;;;7.10;99.90;;;;;;6180184;23;20345;-89
2023/02/11 07:02:31;;;;;;;0.10;0.10;;;;;;;;;;6185098;23;20246;-87
2023/02/11 07:04:57;;;;;;;0.10;0.10;;;7.10;99.90;;;;;;6186907;23;20005;-88
2023/02/11 07:07:22;;;;;;;0.10;0.10;;;7.10;99.90;;;;;;6186786;23;20009;-88
2023/02/11 07:09:48;;;;;;;0.10;0.10;;;7.10;99.90;;;;;;6185635;23;20023;-88
2023/02/11 07:12:13;;;;;;;0.10;0.10;;;;;;;;;;6184101;23;20019;-88
2023/02/11 07:14:39;;;;;;;0.10;0.10;;;7.10;99.90;;;;;;6183874;23;20003;-87
2023/02/11 07:17:05;;;;;;;0.10;0.10;;;7.10;99.90;;;;;;6185283;23;20090;-89
2023/02/11 07:19:30;;;;;;;0.10;0.10;;;7.10;99.90;;;;;;6186646;23;20406;-88
2023/02/11 07:21:56;;;;;;;0.10;0.10;;;7.10;99.90;;;;;;6188096;23;20084;-88
2023/02/11 07:24:22;;;;;;;0.10;0.10;;;7.10;99.90;;;;;;6186808;23;20009;-88
2023/02/11 07:26:47;;;;;;;0.10;0.10;;;6.70;99.90;;;;;;6185873;23;20001;-87
2023/02/11 07:29:13;;;;;;;0.10;0.10;;;7.10;99.90;;;;;;6184437;23;20005;-88
2023/02/11 07:31:38;;;;;;;0.10;0.10;;;7.10;99.90;;;;;;6186063;23;20004;-89
2023/02/11 07:34:04;;;;;;;0.10;0.10;;;;;;;;;;6186073;23;20044;-87
2023/02/11 07:36:31;;;;;;;0.10;0.10;;;;;;;;;;6185098;23;20024;-88
2023/02/11 07:38:57;;;;;;;0.10;0.10;;;7.00;99.90;;;;;;6186977;23;19997;-87
2023/02/11 07:41:24;;;;;;;0.10;0.10;;;7.10;99.90;;;;;;6183154;23;20008;-88
2023/02/11 07:43:50;;;;;;;0.10;0.10;;;;;;;;;;6182906;23;20001;-88
2023/02/11 07:46:44;;;;;;;0.10;0.10;;;7.00;99.90;;;;;;6182112;23;20762;-88
2023/02/11 07:49:10;;;;;;;0.10;0.10;;;;;;;;;;6173553;23;20005;-89
2023/02/11 07:51:36;;;;;;;0.10;0.10;;;;;;;;;;6185024;23;20009;-88
2023/02/11 07:54:04;;;;;;;0.10;0.10;;;;;;;;;;6184836;23;20083;-87
2023/02/11 07:56:30;;;;;;;0.10;0.10;;;;;;;;;;6187000;23;20057;-89
2023/02/11 07:59:00;;;;;;;0.10;0.10;;;7.10;99.90;;;;;;6188126;23;20455;-90
2023/02/11 08:01:30;;;;;;;0.10;0.10;;;7.00;99.90;;;;;;6181631;23;20500;-90
2023/02/11 08:04:55;;;;;;;0.10;0.10;;;7.00;99.90;;;;;;6156570;23;20032;-91
2023/02/11 08:07:48;;;;;;;0.00;0.00;;;7.20;99.90;;;;;;6183060;23;20005;-89
2023/02/11 08:10:47;;;;;;;;;;;;;;;;;;;;;
2023/02/11 08:16:33;;;;;;;0.10;0.10;;;7.20;99.90;;;;;;6185626;23;20016;-90
2023/02/11 08:19:01;;;;;;;0.10;0.10;;;7.20;99.90;;;;;;6183670;23;20012;-90
2023/02/11 08:28:24;;;;;;;0.10;0.10;;;7.20;99.90;;;;;;6078869;23;20060;-90
2023/02/11 08:31:34;;;;;;;0.10;0.10;;;7.20;99.90;;;;;;6083172;23;20018;-90
2023/02/11 08:34:40;;;;;;;;;;;;;;;;;;;;;
2023/02/11 08:37:03;;;;;;;0.10;0.10;;;7.30;99.90;;;;;;6174876;23;20063;-92
2023/02/11 08:39:32;;;;;;;0.10;0.10;;;7.30;99.90;;;;;;6183054;23;20105;-91
2023/02/11 08:41:57;;;;;;;0.10;0.10;;;;;;;;;;6183123;23;20433;-89
2023/02/11 08:44:23;;;;;;;0.10;0.10;;;;;;;;;;6180532;23;20084;-89
2023/02/11 08:46:50;;;;;;;0.10;0.10;;;;;;;;;;6180518;23;20434;-91
2023/02/11 08:49:19;;;;;;;0.10;0.10;;;;;;;;;;6162762;23;20003;-92
2023/02/11 08:51:45;;;;;;;0.10;0.10;;;;;;;;;;6196754;22;20071;-92
2023/02/11 08:54:11;;;;;;;0.10;0.10;;;;;;;;;;6187627;23;20333;-92
2023/02/11 08:57:35;;;;;;;;;;;;;;;;;;;;;
2023/02/11 09:03:31;;;;;;;0.10;0.10;;;;;;;;;;6038901;23;20003;-91
2023/02/11 09:06:21;;;;;;;0.10;0.10;;;7.40;99.90;;;;;;6186757;23;20012;-91
2023/02/11 09:09:07;;;;;;;0.10;0.10;;;7.50;99.90;;;;;;6188621;23;20007;-92
2023/02/11 09:11:34;;;;;;;0.10;0.10;;;7.40;99.90;;;;;;6188426;23;20005;-92
2023/02/11 09:14:00;;;;;;;0.00;0.00;;;7.50;99.90;;;;;;6186146;23;20361;-91
2023/02/11 09:16:29;;;;;;;0.10;0.10;;;7.50;99.90;;;;;;6186448;23;20008;-92
2023/02/11 09:18:56;;;;;;;0.10;0.10;;;7.40;99.90;;;;;;6214108;23;20354;-89
2023/02/11 09:21:22;;;;;;;0.10;0.10;;;8.30;99.90;;;;;;6187578;23;20027;-91
2023/02/11 09:23:48;;;;;;;0.10;0.10;;;;;;;;;;6187195;23;20434;-90
2023/02/11 09:26:19;;;;;;;0.10;0.10;;;7.50;99.90;;;;;;6214123;23;20011;-91
2023/02/11 09:28:45;;;;;;;0.10;0.10;;;;;;;;;;6186719;23;20055;-91
2023/02/11 09:31:14;;;;;;;0.10;0.10;;;7.70;99.90;;;;;;6188301;23;20001;-91
2023/02/11 09:33:46;;;;;;;0.10;0.10;;;7.70;99.90;;;;;;6185435;23;20009;-92
2023/02/11 09:36:12;;;;;;;0.10;0.10;;;;;;;;;;6187032;23;20008;-90
2023/02/11 09:38:38;;;;;;;0.10;0.10;;;;;;;;;;6189076;23;20189;-91
2023/02/11 09:41:07;;;;;;;0.10;0.10;;;;;;;;;;6187495;23;20005;-90
2023/02/11 09:43:41;;;;;;;0.10;0.10;;;7.80;99.90;;;;;;6186480;23;20511;-90
2023/02/11 09:46:12;;;;;;;0.10;0.10;;;7.70;99.90;;;;;;6187690;23;20004;-91
2023/02/11 09:48:41;;;;;;;0.10;0.10;;;7.80;99.90;;;;;;6215723;23;20347;-92
2023/02/11 09:51:19;;;;;;;0.10;0.10;;;7.80;99.90;;;;;;6215276;23;20465;-91
2023/02/11 09:53:46;;;;;;;0.10;0.10;;;7.80;99.90;;;;;;6187049;23;20032;-90
2023/02/11 09:56:14;;;;;;;0.10;0.10;;;7.70;99.90;;;;;;6187901;23;20004;-91
2023/02/11 09:58:42;;;;;;;0.10;0.10;;;7.70;99.90;;;;;;6187179;23;20013;-91
2023/02/11 10:01:13;;;;;;;0.10;0.10;;;7.80;99.90;;;;;;6187342;23;20505;-91
2023/02/11 10:03:42;;;;;;;0.10;0.10;;;7.80;99.90;;;;;;6186721;23;20019;-92
2023/02/11 10:06:38;;;;;;;0.10;0.10;;;7.70;99.90;;;;;;6188268;23;20005;-91
2023/02/11 10:09:48;;;;;;;0.10;0.10;;;7.90;99.90;;;;;;6212802;23;20016;-92
2023/02/11 10:12:14;;;;;;;0.10;0.10;;;;;;;;;;6189261;23;20007;-92
2023/02/11 10:15:11;;;;;;;0.10;0.10;;;8.00;99.90;;;;;;6181820;23;20266;-92
2023/02/11 10:18:15;;;;;;;0.10;0.10;;;8.10;99.90;;;;;;6186243;23;20009;-90
2023/02/11 10:21:16;;;;;;;0.08;0.08;;;8.10;99.90;;;;;;6188145;23;20422;-92
2023/02/11 10:23:53;;;;;;;0.10;0.10;;;8.10;99.90;;;;;;6189199;23;20028;-92
2023/02/11 10:26:25;;;;;;;0.10;0.10;;;;;;;;;;6188493;23;20004;-91
2023/02/11 10:28:53;;;;;;;0.10;0.10;;;8.20;99.90;;;;;;6187804;23;20026;-92
2023/02/11 10:31:26;;;;;;;0.10;0.10;;;8.20;99.90;;;;;;6187710;23;20008;-92
2023/02/11 10:34:24;;;;;;;0.10;0.10;;;8.20;99.90;;;;;;6188526;23;19997;-91
2023/02/11 10:36:53;;;;;;;0.10;0.10;;;8.20;99.90;;;;;;6131243;23;20058;-91
2023/02/11 10:39:23;;;;;;;0.10;0.10;;;8.20;99.90;;;;;;6188472;23;20020;-91
2023/02/11 10:41:53;;;;;;;0.10;0.10;;;8.30;99.90;;;;;;6186995;23;20000;-91
2023/02/11 10:44:44;;;;;;;0.10;0.10;;;8.30;99.90;;;;;;6187151;23;20008;-89
2023/02/11 10:47:19;;;;;;;0.10;0.10;;;8.30;99.90;;;;;;6189231;23;20004;-91
2023/02/11 10:49:54;;;;;;;0.10;0.10;;;8.20;99.90;;;;;;6188879;23;19997;-90
2023/02/11 10:52:21;;;;;;;0.10;0.10;;;8.30;99.90;;;;;;6188708;23;20454;-92
2023/02/11 10:55:25;;;;;;;0.10;0.10;;;8.30;99.90;;;;;;6188744;23;20009;-92
2023/02/11 10:57:59;;;;;;;0.10;0.10;;;8.40;99.90;;;;;;6179513;23;20009;-93
2023/02/11 11:00:37;;;;;;;0.10;0.10;;;8.30;99.90;;;;;;6190366;23;20008;-93
2023/02/11 11:03:17;;;;;;;0.10;0.10;;;8.40;99.90;;;;;;6191124;23;20374;-93
2023/02/11 11:05:56;;;;;;;0.10;0.10;;;8.30;99.90;;;;;;6190575;23;20092;-93
2023/02/11 11:08:22;;;;;;;0.10;0.10;;;;;;;;;;6188189;23;20005;-92
2023/02/11 11:11:05;;;;;;;0.10;0.10;;;8.30;99.90;;;;;;6191390;23;20027;-92
2023/02/11 11:13:37;;;;;;;0.10;0.10;;;8.40;99.90;;;;;;6202808;23;20004;-92
2023/02/11 11:16:11;;;;;;;0.10;0.10;;;8.40;99.90;;;;;;6193636;23;20008;-92
2023/02/11 11:18:42;;;;;;;0.10;0.10;;;8.30;99.90;;;;;;6189754;23;20004;-93
2023/02/11 11:21:23;;;;;;;0.10;0.10;;;8.30;99.90;;;;;;6190415;23;20067;-92
2023/02/11 11:23:56;;;;;;;0.10;0.10;;;8.30;99.90;;;;;;6190185;23;20019;-91
2023/02/11 11:26:22;;;;;;;0.10;0.10;;;8.40;99.90;;;;;;6190778;23;20507;-91
2023/02/11 11:28:48;;;;;;;0.10;0.10;;;;;;;;;;6189701;23;20054;-91
2023/02/11 11:31:32;;;;;;;0.10;0.10;;;8.50;99.90;;;;;;6189860;23;20001;-92
2023/02/11 11:33:59;;;;;;;0.10;0.10;;;8.50;99.90;;;;;;6188905;23;20005;-92
2023/02/11 11:36:37;;;;;;;0.10;0.10;;;8.50;99.90;;;;;;6189625;23;20362;-93
2023/02/11 11:39:25;;;;;;;0.10;0.10;;;8.60;99.90;;;;;;6190279;23;20084;-92
2023/02/11 11:41:56;;;;;;;0.10;0.10;;;8.60;99.90;;;;;;6189825;23;20058;-92
2023/02/11 11:44:28;;;;;;;0.10;0.10;;;8.60;99.90;;;;;;6188983;23;20009;-93
2023/02/11 11:47:12;;;;;;;0.10;0.10;;;8.50;99.90;;;;;;6190711;23;20505;-92
2023/02/11 11:50:11;;;;;;;0.10;0.10;;;8.60;99.90;;;;;;6187382;23;20432;-91
2023/02/11 11:53:00;;;;;;;0.10;0.10;;;8.70;99.90;;;;;;6162782;23;20338;-92
2023/02/11 11:55:26;;;;;;;0.10;0.10;;;;;;;;;;6116481;23;20005;-91
2023/02/11 11:57:52;;;;;;;0.10;0.10;;;;;;;;;;6189718;23;20007;-92
2023/02/11 12:00:53;;;;;;;0.10;0.10;;;8.90;99.90;;;;;;6189304;23;20008;-92
2023/02/11 12:03:55;;;;;;;0.10;0.10;;;9.00;99.90;;;;;;6184562;23;20055;-91
2023/02/11 12:06:47;;;;;;;0.10;0.10;;;8.90;99.90;;;;;;6189131;23;20072;-92
2023/02/11 12:09:40;;;;;;;0.08;0.08;;;8.90;99.90;;;;;;6186130;23;20008;-91
2023/02/11 12:15:01;;;;;;;0.10;0.10;;;8.80;99.90;;;;;;6190118;23;20059;-93
2023/02/11 12:20:55;;;;;;;0.10;0.10;;;;;;;;;;6197598;23;20062;-93
2023/02/11 12:26:43;;;;;;;0.10;0.10;;;;;;;;;;6198051;23;20095;-92
2023/02/11 12:46:11;;;;;;;0.10;0.10;;;8.70;99.90;;;;;;6200191;23;20040;-93
2023/02/11 12:49:03;;;;;;;0.10;0.10;;;8.80;99.90;;;;;;6172822;23;20001;-92
2023/02/11 12:51:50;;;;;;;0.10;0.10;;;8.90;99.90;;;;;;6174055;23;20021;-93
2023/02/11 12:54:46;;;;;;;0.10;0.10;;;8.90;99.90;;;;;;6178215;23;20001;-91
2023/02/11 12:57:27;;;;;;;0.10;0.10;;;8.90;99.90;;;;;;6179556;23;20065;-94
2023/02/11 13:00:05;;;;;;;0.10;0.10;;;9.00;99.90;;;;;;6179152;23;20088;-93
2023/02/11 13:02:46;;;;;;;0.10;0.10;;;9.00;99.90;;;;;;6181907;23;20040;-92
2023/02/11 13:05:49;;;;;;;0.10;0.10;;;8.90;99.90;;;;;;6167935;23;20005;-91
2023/02/11 13:09:07;;;;;;;0.10;0.10;;;8.90;99.90;;;;;;6171342;23;20005;-91
2023/02/11 13:15:04;;;;;;;0.10;0.10;;;8.70;99.90;;;;;;6200624;23;20063;-92
2023/02/11 13:24:43;;;;;;;0.10;0.10;;;8.60;99.90;;;;;;6196291;23;20004;-92
2023/02/11 13:27:23;;;;;;;0.10;0.10;;;8.60;99.90;;;;;;6171228;23;20001;-92
2023/02/11 13:36:34;;;;;;;0.10;0.10;;;8.70;99.90;;;;;;6199067;23;20036;-92
2023/02/11 13:39:05;;;;;;;0.10;0.10;;;8.50;99.90;;;;;;6171732;23;20001;-92
2023/02/11 13:41:40;;;;;;;0.10;0.10;;;8.60;99.90;;;;;;6161585;23;20001;-92
2023/02/11 13:44:25;;;;;;;0.10;0.10;;;8.70;99.90;;;;;;6173103;23;20464;-92
2023/02/11 13:47:03;;;;;;;0.10;0.10;;;8.90;99.90;;;;;;6170989;23;20024;-92
2023/02/11 13:49:36;;;;;;;0.10;0.10;;;8.60;99.90;;;;;;6170121;23;20001;-91
2023/02/11 13:52:05;;;;;;;0.10;0.10;;;9.00;99.90;;;;;;6170837;23;20064;-91
2023/02/11 13:54:37;;;;;;;0.10;0.10;;;9.10;99.90;;;;;;6169093;23;20040;-92
2023/02/11 13:57:21;;;;;;;0.10;0.10;;;9.00;99.90;;;;;;6169718;23;20019;-92
2023/02/11 13:59:50;;;;;;;0.10;0.10;;;9.00;99.90;;;;;;6169131;23;20012;-92
2023/02/11 14:10:59;;;;;;;0.10;0.10;;;9.10;99.90;;;;;;6208268;23;20000;-91
2023/02/11 14:13:27;;;;;;;0.10;0.10;;;9.00;99.90;;;;;;6172264;23;20009;-93
2023/02/11 14:16:12;;;;;;;0.10;0.10;;;9.10;99.90;;;;;;6180228;23;20073;-93
2023/02/11 14:18:44;;;;;;;0.10;0.10;;;9.00;99.90;;;;;;6179179;23;20029;-92
2023/02/11 14:21:25;;;;;;;0.00;0.00;;;10.60;99.90;;;;;;6180838;23;20012;-93
2023/02/11 14:23:55;;;;;;;0.10;0.10;;;;;;;;;;6177736;23;20013;-93
2023/02/11 14:26:20;;;;;;;0.03;0.03;;;;;;;;;;6178437;23;20023;-94
2023/02/11 14:29:18;;;;;;;0.00;0.00;;;9.00;99.90;;;;;;6177663;23;19997;-91
2023/02/11 14:32:21;;;;;;;0.08;0.08;;;9.10;99.90;;;;;;6172508;23;20028;-94
2023/02/11 14:35:50;;;;;;;0.00;0.00;;;9.10;99.90;;;;;;6202534;23;19997;-93
2023/02/11 14:38:33;;;;;;;0.08;0.08;;;9.00;99.90;;;;;;6182228;23;20000;-93
2023/02/11 14:41:10;;;;;;;0.05;0.05;;;9.10;99.90;;;;;;6178108;23;20032;-92
2023/02/11 14:44:04;;;;;;;0.00;0.00;;;8.10;99.90;;;;;;6180406;23;20039;-92
2023/02/11 14:46:31;;;;;;;0.10;0.10;;;;;;;;;;6174059;23;20016;-92
2023/02/11 14:49:00;;;;;;;0.00;0.00;;;9.20;99.90;;;;;;6179911;23;20008;-92
2023/02/11 14:51:30;;;;;;;0.10;0.10;;;9.20;99.90;;;;;;6180540;23;20016;-94
2023/02/11 14:54:09;;;;;;;0.10;0.10;;;9.10;99.90;;;;;;6181088;23;19996;-94
2023/02/11 14:56:35;;;;;;;0.10;0.10;;;9.10;99.90;;;;;;6175100;23;19993;-92
2023/02/11 14:59:01;;;;;;;0.00;0.00;;;9.20;99.90;;;;;;6176667;23;20012;-93
2023/02/11 15:01:34;;;;;;;0.03;0.03;;;9.30;99.90;;;;;;6177854;23;20001;-94
2023/02/11 15:04:02;;;;;;;0.10;0.10;;;9.20;99.90;;;;;;6179911;23;20008;-93
2023/02/11 15:06:38;;;;;;;0.00;0.00;;;9.20;99.90;;;;;;6176222;23;20013;-95
2023/02/11 15:09:04;;;;;;;0.10;0.10;;;;;;;;;;6176742;23;20323;-94
2023/02/11 15:11:33;;;;;;;0.10;0.10;;;9.30;99.90;;;;;;6168374;23;20362;-93
2023/02/11 15:14:09;;;;;;;0.10;0.10;;;9.30;99.90;;;;;;6177245;23;20020;-93
2023/02/11 15:16:43;;;;;;;0.03;0.03;;;9.30;99.90;;;;;;6177755;23;20263;-94
2023/02/11 15:19:34;;;;;;;0.00;0.00;;;9.20;99.90;;;;;;6176700;23;20004;-94
2023/02/11 15:22:03;;;;;;;0.10;0.10;;;9.20;99.90;;;;;;6178290;23;20000;-92
2023/02/11 15:24:34;;;;;;;0.05;0.05;;;9.20;99.90;;;;;;6177357;23;20008;-93
2023/02/11 15:27:03;;;;;;;0.10;0.10;;;9.30;99.90;;;;;;6177452;23;20020;-93
2023/02/11 15:29:50;;;;;;;0.10;0.10;;;9.30;99.90;;;;;;6177766;23;20005;-94
2023/02/11 15:32:27;;;;;;;0.00;0.00;;;9.20;99.90;;;;;;6177117;23;20052;-94
2023/02/11 15:34:55;;;;;;;0.10;0.10;;;;;;;;;;6178861;23;20009;-93
2023/02/11 15:37:32;;;;;;;0.10;0.10;;;9.20;99.90;;;;;;6179732;23;20036;-93
2023/02/11 15:40:15;;;;;;;0.00;0.00;;;9.20;99.90;;;;;;6198241;23;20072;-91
2023/02/11 15:42:56;;;;;;;0.05;0.05;;;9.20;99.90;;;;;;6179792;23;19989;-92
2023/02/11 15:45:30;;;;;;;0.10;0.10;;;9.20;99.90;;;;;;6176597;23;20144;-93
2023/02/11 15:48:05;;;;;;;0.00;0.00;;;9.20;99.90;;;;;;6180792;23;20001;-94
2023/02/11 15:50:35;;;;;;;0.10;0.10;;;9.20;99.90;;;;;;6177267;23;20004;-93
2023/02/11 15:53:14;;;;;;;0.10;0.10;;;8.50;99.90;;;;;;6180202;23;19989;-93
2023/02/11 15:55:40;;;;;;;0.00;0.00;;;9.20;99.90;;;;;;6176599;23;19993;-94
2023/02/11 15:58:08;;;;;;;0.10;0.10;;;9.20;99.90;;;;;;6179590;23;20005;-93
2023/02/11 16:00:46;;;;;;;0.00;0.00;;;9.20;99.90;;;;;;6179159;23;19993;-90
2023/02/11 16:03:23;;;;;;;0.10;0.10;;;9.30;99.90;;;;;;6178645;23;20004;-93
2023/02/11 16:05:50;;;;;;;0.00;0.00;;;9.20;99.90;;;;;;6174627;23;20058;-91
2023/02/11 16:08:31;;;;;;;0.00;0.00;;;8.40;99.90;;;;;;6175896;23;20041;-93
2023/02/11 16:11:07;;;;;;;0.10;0.10;;;9.20;99.90;;;;;;6176345;23;20053;-93
2023/02/11 16:13:44;;;;;;;0.10;0.10;;;9.20;99.90;;;;;;6175928;23;20005;-91